Time;durP1;ratioP1;P1;durP2;ratioP2;P2;SDS_P1;SDS_P2;PMS_P1;PMS_P2;Temp;Humidity;BMP_temperature;BMP_pressure;BME280_temperature;BME280_humidity;BME280_pressure;Samples;Min_cycle;Max_cycle;Signal;HPM_P1;HPM_P2
2021/10/30 00:00:12;;;;;;;;;;;15.40;93.00;;;;;;4331448;33;32933;-77
2021/10/30 00:02:39;;;;;;;;;;;15.40;93.10;;;;;;4331360;33;38205;-79
2021/10/30 00:05:08;;;;;;;;;;;15.40;93.00;;;;;;4329513;33;42511;-77
2021/10/30 00:07:35;;;;;;;;;;;15.40;93.00;;;;;;4331346;33;39737;-78
2021/10/30 00:10:04;;;;;;;;;;;15.40;93.00;;;;;;4332514;33;20052;-79
2021/10/30 00:12:31;;;;;;;;;;;15.40;93.00;;;;;;4331350;33;39436;-78
2021/10/30 00:14:58;;;;;;;;;;;15.40;93.00;;;;;;4318248;33;40116;-77
2021/10/30 00:17:25;;;;;;;;;;;15.50;92.90;;;;;;4331425;33;38605;-78
2021/10/30 00:19:53;;;;;;;;;;;15.50;92.90;;;;;;4332555;33;20060;-78
2021/10/30 00:22:20;;;;;;;;;;;15.50;92.80;;;;;;4317811;33;43662;-77
2021/10/30 00:24:47;;;;;;;;;;;15.50;92.80;;;;;;4330302;33;43900;-77
2021/10/30 00:27:14;;;;;;;;;;;15.50;92.80;;;;;;4330760;33;44620;-78
2021/10/30 00:29:42;;;;;;;;;;;15.50;92.80;;;;;;4330157;33;44675;-77
2021/10/30 00:32:09;;;;;;;;;;;15.50;92.80;;;;;;4330018;33;43454;-77
2021/10/30 00:34:41;;;;;;;;;;;15.50;92.80;;;;;;4331440;33;22626;-78
2021/10/30 00:37:08;;;;;;;;;;;15.50;92.90;;;;;;4318011;33;43479;-77
2021/10/30 00:39:35;;;;;;;;;;;15.50;92.90;;;;;;4332325;33;20428;-76
2021/10/30 00:42:03;;;;;;;;;;;15.50;92.90;;;;;;4331155;33;41682;-76
2021/10/30 00:44:30;;;;;;;;;;;15.50;92.90;;;;;;4329393;33;42811;-78
2021/10/30 00:46:57;;;;;;;;;;;15.50;92.90;;;;;;4329953;33;45008;-78
2021/10/30 00:49:25;;;;;;;;;;;15.50;92.90;;;;;;4330045;33;29629;-77
2021/10/30 00:51:54;;;;;;;;;;;15.50;92.90;;;;;;4330892;33;20002;-77
2021/10/30 00:54:22;;;;;;;;;;;15.40;92.90;;;;;;4330614;33;20012;-77
2021/10/30 00:56:52;;;;;;;;;;;15.40;92.90;;;;;;4332130;33;20001;-78
2021/10/30 00:59:20;;;;;;;;;;;15.40;92.90;;;;;;4330751;33;20024;-77
2021/10/30 01:01:51;;;;;;;;;;;15.40;92.90;;;;;;4317831;33;20383;-77
2021/10/30 01:04:19;;;;;;;;;;;15.50;92.90;;;;;;4330823;33;20105;-78
2021/10/30 01:06:50;;;;;;;;;;;15.50;92.90;;;;;;4329583;33;43732;-78
2021/10/30 01:09:19;;;;;;;;;;;15.50;92.90;;;;;;4343153;33;20022;-77
2021/10/30 01:11:46;;;;;;;;;;;15.50;92.80;;;;;;4330790;33;42090;-78
2021/10/30 01:14:16;;;;;;;;;;;15.50;92.80;;;;;;4330734;33;20018;-78
2021/10/30 01:16:50;;;;;;;;;;;15.50;92.80;;;;;;4329651;33;39887;-77
2021/10/30 01:19:17;;;;;;;;;;;15.50;92.70;;;;;;4331780;33;20016;-77
2021/10/30 01:21:47;;;;;;;;;;;15.50;92.70;;;;;;4330648;33;20017;-77
2021/10/30 01:24:17;;;;;;;;;;;15.50;92.70;;;;;;4331720;33;20027;-76
2021/10/30 01:26:44;;;;;;;;;;;15.60;92.70;;;;;;4331561;33;20032;-77
2021/10/30 01:29:11;;;;;;;;;;;15.50;92.60;;;;;;4331773;33;20017;-77
2021/10/30 01:31:41;;;;;;;;;;;15.50;92.60;;;;;;4331222;33;24849;-77
2021/10/30 01:34:09;;;;;;;;;;;15.50;92.60;;;;;;4330273;33;20024;-76
2021/10/30 01:36:36;;;;;;;;;;;15.60;92.60;;;;;;4317747;33;32046;-79
2021/10/30 01:39:08;;;;;;;;;;;15.50;92.50;;;;;;4330192;33;39803;-77
2021/10/30 01:41:35;;;;;;;;;;;15.50;92.50;;;;;;4317623;33;37982;-77
2021/10/30 01:44:02;;;;;;;;;;;15.60;92.60;;;;;;4328937;33;44356;-78
2021/10/30 01:46:30;;;;;;;;;;;15.60;92.50;;;;;;4329416;33;37690;-77
2021/10/30 01:49:00;;;;;;;;;;;15.50;92.40;;;;;;4318579;33;20039;-77
2021/10/30 01:51:27;;;;;;;;;;;15.60;92.50;;;;;;4329614;33;33769;-77
2021/10/30 01:53:55;;;;;;;;;;;15.60;92.40;;;;;;4330515;33;39808;-77
2021/10/30 01:56:26;;;;;;;;;;;15.60;92.50;;;;;;4331878;33;20013;-79
2021/10/30 01:58:53;;;;;;;;;;;15.50;92.40;;;;;;4317185;33;44624;-77
2021/10/30 02:01:24;;;;;;;;;;;15.50;92.40;;;;;;4329562;33;20006;-77
2021/10/30 02:03:54;;;;;;;;;;;15.50;92.40;;;;;;4329437;33;41384;-77
2021/10/30 02:06:22;;;;;;;;;;;15.50;92.40;;;;;;4328670;33;44977;-77
2021/10/30 02:08:52;;;;;;;;;;;15.50;92.40;;;;;;4317713;33;30636;-78
2021/10/30 02:11:19;;;;;;;;;;;15.50;92.40;;;;;;4329554;33;27089;-77
2021/10/30 02:13:49;;;;;;;;;;;15.40;92.40;;;;;;4330348;33;38121;-77
2021/10/30 02:16:19;;;;;;;;;;;15.50;92.40;;;;;;4330678;33;30789;-77
2021/10/30 02:18:46;;;;;;;;;;;15.50;92.40;;;;;;4316613;33;44489;-77
2021/10/30 02:21:13;;;;;;;;;;;15.40;92.40;;;;;;4329219;33;33693;-76
2021/10/30 02:23:40;;;;;;;;;;;15.40;92.40;;;;;;4329336;33;39535;-77
2021/10/30 02:26:07;;;;;;;;;;;15.40;92.30;;;;;;4330371;33;39760;-77
2021/10/30 02:28:34;;;;;;;;;;;15.50;92.40;;;;;;4331258;33;41753;-77
2021/10/30 02:31:02;;;;;;;;;;;15.40;92.30;;;;;;4332990;33;41403;-77
2021/10/30 02:33:29;;;;;;;;;;;15.40;92.30;;;;;;4333333;33;20013;-77
2021/10/30 02:35:56;;;;;;;;;;;15.40;92.40;;;;;;4319444;33;43856;-76
2021/10/30 02:38:23;;;;;;;;;;;15.40;92.40;;;;;;4332709;33;37145;-76
2021/10/30 02:40:50;;;;;;;;;;;15.40;92.40;;;;;;4332644;33;39971;-76
2021/10/30 02:43:18;;;;;;;;;;;15.40;92.30;;;;;;4332405;33;39225;-78
2021/10/30 02:45:45;;;;;;;;;;;15.40;92.30;;;;;;4332193;33;40644;-77
2021/10/30 02:48:12;;;;;;;;;;;15.40;92.30;;;;;;4332811;33;22465;-76
2021/10/30 02:50:41;;;;;;;;;;;15.40;92.30;;;;;;4333891;33;20075;-77
2021/10/30 02:53:09;;;;;;;;;;;15.40;92.20;;;;;;4331512;33;37890;-77
2021/10/30 02:55:36;;;;;;;;;;;15.40;92.20;;;;;;4332268;33;35922;-77
2021/10/30 02:58:03;;;;;;;;;;;15.40;92.20;;;;;;4319621;33;31837;-77
2021/10/30 03:00:32;;;;;;;;;;;15.40;92.10;;;;;;4330994;33;45584;-77
2021/10/30 03:03:00;;;;;;;;;;;15.40;92.10;;;;;;4332095;33;44992;-77
2021/10/30 03:05:27;;;;;;;;;;;15.40;92.10;;;;;;4333030;33;20778;-76
2021/10/30 03:07:55;;;;;;;;;;;15.40;92.10;;;;;;4331388;33;34064;-77
2021/10/30 03:10:22;;;;;;;;;;;15.40;92.10;;;;;;4333048;33;20433;-76
2021/10/30 03:12:49;;;;;;;;;;;15.40;92.00;;;;;;4331925;33;41146;-77
2021/10/30 03:15:20;;;;;;;;;;;15.40;92.00;;;;;;4319002;33;44820;-77
2021/10/30 03:17:48;;;;;;;;;;;15.40;92.00;;;;;;4318681;33;43454;-76
2021/10/30 03:20:15;;;;;;;;;;;15.40;92.00;;;;;;4331455;33;23425;-77
2021/10/30 03:22:42;;;;;;;;;;;15.40;92.00;;;;;;4332311;33;38925;-75
2021/10/30 03:25:09;;;;;;;;;;;15.40;91.90;;;;;;4318740;33;45268;-77
2021/10/30 03:27:37;;;;;;;;;;;15.40;91.90;;;;;;4332043;33;44041;-78
2021/10/30 03:30:07;;;;;;;;;;;15.40;91.90;;;;;;4332272;33;44514;-75
2021/10/30 03:32:34;;;;;;;;;;;15.40;92.00;;;;;;4330798;33;37885;-77
2021/10/30 03:35:02;;;;;;;;;;;15.30;92.00;;;;;;4331757;33;41011;-76
2021/10/30 03:37:32;;;;;;;;;;;15.30;92.00;;;;;;4330532;33;38514;-75
2021/10/30 03:40:00;;;;;;;;;;;15.30;92.00;;;;;;4330208;33;38731;-76
2021/10/30 03:42:27;;;;;;;;;;;15.30;92.00;;;;;;4330737;33;44657;-78
2021/10/30 03:44:54;;;;;;;;;;;15.30;92.00;;;;;;4330778;33;44986;-76
2021/10/30 03:47:21;;;;;;;;;;;15.30;92.00;;;;;;4330654;33;44971;-76
2021/10/30 03:49:48;;;;;;;;;;;15.20;92.00;;;;;;4331592;33;42800;-77
2021/10/30 03:52:16;;;;;;;;;;;15.30;92.00;;;;;;4330694;33;44621;-76
2021/10/30 03:54:43;;;;;;;;;;;15.20;92.00;;;;;;4331651;33;42262;-77
2021/10/30 03:57:13;;;;;;;;;;;15.20;92.00;;;;;;4332104;33;20678;-76
2021/10/30 03:59:43;;;;;;;;;;;15.20;92.00;;;;;;4331439;33;46059;-76
2021/10/30 04:02:12;;;;;;;;;;;15.20;91.90;;;;;;4331071;33;44429;-76
2021/10/30 04:04:42;;;;;;;;;;;15.20;92.00;;;;;;4331394;33;43755;-76
2021/10/30 04:07:09;;;;;;;;;;;15.20;92.00;;;;;;4330403;33;41810;-76
2021/10/30 04:09:37;;;;;;;;;;;15.20;92.00;;;;;;4331793;33;40742;-75
2021/10/30 04:12:04;;;;;;;;;;;15.20;92.30;;;;;;4329849;33;45903;-76
2021/10/30 04:14:31;;;;;;;;;;;15.20;92.00;;;;;;4330458;33;40398;-76
2021/10/30 04:17:01;;;;;;;;;;;15.20;92.00;;;;;;4331109;33;37231;-77
2021/10/30 04:19:31;;;;;;;;;;;15.20;92.10;;;;;;4330005;33;36046;-76
2021/10/30 04:21:58;;;;;;;;;;;15.20;92.10;;;;;;4329712;33;45130;-77
2021/10/30 04:24:25;;;;;;;;;;;15.10;92.10;;;;;;4329982;33;41668;-76
2021/10/30 04:26:55;;;;;;;;;;;15.10;92.20;;;;;;4330962;33;43683;-76
2021/10/30 04:29:25;;;;;;;;;;;15.10;92.20;;;;;;4331112;33;43600;-76
2021/10/30 04:31:57;;;;;;;;;;;15.10;92.30;;;;;;4332036;33;20013;-76
2021/10/30 04:34:48;;;;;;;;;;;15.10;92.30;;;;;;4332238;33;20010;-76
2021/10/30 04:37:17;;;;;;;;;;;15.00;92.30;;;;;;4331262;33;42694;-76
2021/10/30 04:39:45;;;;;;;;;;;15.00;92.30;;;;;;4331213;33;40055;-76
2021/10/30 04:42:16;;;;;;;;;;;15.00;92.40;;;;;;4331051;33;20469;-77
2021/10/30 04:44:46;;;;;;;;;;;15.00;92.40;;;;;;4317612;33;45331;-76
2021/10/30 04:47:15;;;;;;;;;;;15.00;92.50;;;;;;4329778;33;44906;-77
2021/10/30 04:49:43;;;;;;;;;;;14.90;92.50;;;;;;4331066;33;34557;-76
2021/10/30 04:52:11;;;;;;;;;;;14.90;92.60;;;;;;4330066;33;28266;-76
2021/10/30 04:54:44;;;;;;;;;;;14.90;92.60;;;;;;4318112;33;20379;-76
2021/10/30 04:57:11;;;;;;;;;;;14.90;92.60;;;;;;4330923;33;40743;-77
2021/10/30 04:59:38;;;;;;;;;;;14.90;92.70;;;;;;4329858;33;39580;-76
2021/10/30 05:02:05;;;;;;;;;;;14.90;92.70;;;;;;4317114;33;42702;-76
2021/10/30 05:04:33;;;;;;;;;;;14.90;92.70;;;;;;4318629;33;20414;-76
2021/10/30 05:07:00;;;;;;;;;;;14.90;92.70;;;;;;4329692;33;25568;-76
2021/10/30 05:09:27;;;;;;;;;;;14.90;92.70;;;;;;4330603;33;43500;-76
2021/10/30 05:12:00;;;;;;;;;;;14.90;92.80;;;;;;4317332;33;35808;-76
2021/10/30 05:14:27;;;;;;;;;;;14.90;92.80;;;;;;4317697;33;33767;-76
2021/10/30 05:17:03;;;;;;;;;;;14.90;92.80;;;;;;4331713;33;20009;-76
2021/10/30 05:19:39;;;;;;;;;;;14.90;92.80;;;;;;4330090;33;31252;-76
2021/10/30 05:22:12;;;;;;;;;;;14.90;92.80;;;;;;4329440;33;34481;-76
2021/10/30 05:24:44;;;;;;;;;;;14.90;92.90;;;;;;4330537;33;20028;-76
2021/10/30 05:27:16;;;;;;;;;;;14.80;92.90;;;;;;4330623;33;42821;-76
2021/10/30 05:29:46;;;;;;;;;;;14.80;92.90;;;;;;4330370;33;20036;-76
2021/10/30 05:32:19;;;;;;;;;;;14.80;93.00;;;;;;4317243;33;35401;-76
2021/10/30 05:34:51;;;;;;;;;;;14.70;93.10;;;;;;4330625;33;20013;-75
2021/10/30 05:37:28;;;;;;;;;;;14.70;93.10;;;;;;4331864;33;20024;-76
2021/10/30 05:39:59;;;;;;;;;;;14.70;93.20;;;;;;4317816;33;19998;-77
2021/10/30 05:42:39;;;;;;;;;;;14.60;93.20;;;;;;4330126;33;20320;-76
2021/10/30 05:45:14;;;;;;;;;;;14.60;93.20;;;;;;4330586;33;20020;-77
2021/10/30 05:47:53;;;;;;;;;;;14.60;93.20;;;;;;4329761;33;30095;-77
2021/10/30 05:50:20;;;;;;;;;;;14.60;93.20;;;;;;4329531;33;35354;-77
2021/10/30 05:52:53;;;;;;;;;;;14.60;93.20;;;;;;4329783;33;20002;-78
2021/10/30 05:55:26;;;;;;;;;;;14.60;93.20;;;;;;4331127;33;24243;-78
2021/10/30 05:57:59;;;;;;;;;;;14.60;93.20;;;;;;4317562;33;29312;-77
2021/10/30 06:00:35;;;;;;;;;;;14.60;93.30;;;;;;4318288;33;20021;-78
2021/10/30 06:03:11;;;;;;;;;;;14.50;93.30;;;;;;4331215;33;20077;-78
2021/10/30 06:05:46;;;;;;;;;;;14.50;93.40;;;;;;4320542;33;26083;-78
2021/10/30 06:08:17;;;;;;;;;;;14.50;93.40;;;;;;4332033;33;40627;-80
2021/10/30 06:10:47;;;;;;;;;;;14.50;93.50;;;;;;4320378;33;25040;-77
2021/10/30 06:13:14;;;;;;;;;;;14.40;93.50;;;;;;4333719;33;22556;-78
2021/10/30 06:15:44;;;;;;;;;;;14.40;93.50;;;;;;4334086;33;20067;-77
2021/10/30 06:18:20;;;;;;;;;;;14.40;93.50;;;;;;4333865;33;20015;-77
2021/10/30 06:20:52;;;;;;;;;;;14.40;93.50;;;;;;4319965;33;38758;-77
2021/10/30 06:23:28;;;;;;;;;;;14.40;93.50;;;;;;4332820;33;20019;-77
2021/10/30 06:26:00;;;;;;;;;;;14.40;93.50;;;;;;4332713;33;23960;-78
2021/10/30 06:28:35;;;;;;;;;;;14.40;93.50;;;;;;4320240;33;23364;-79
2021/10/30 06:31:10;;;;;;;;;;;14.40;93.50;;;;;;4332435;33;26674;-77
2021/10/30 06:33:47;;;;;;;;;;;14.40;93.50;;;;;;4320939;33;20406;-79
2021/10/30 06:36:17;;;;;;;;;;;14.40;93.50;;;;;;4332878;33;20415;-77
2021/10/30 06:38:53;;;;;;;;;;;14.40;93.50;;;;;;4320221;33;28523;-77
2021/10/30 06:41:43;;;;;;;;;;;14.40;93.50;;;;;;4322990;33;19997;-78
2021/10/30 06:44:13;;;;;;;;;;;14.40;93.50;;;;;;4331936;33;32550;-77
2021/10/30 06:46:42;;;;;;;;;;;14.40;93.50;;;;;;4332965;33;28860;-77
2021/10/30 06:49:11;;;;;;;;;;;14.40;93.50;;;;;;4332334;33;25069;-77
2021/10/30 06:51:46;;;;;;;;;;;14.30;93.50;;;;;;4333104;33;27642;-77
2021/10/30 06:54:21;;;;;;;;;;;14.40;93.50;;;;;;4332673;33;20013;-77
2021/10/30 06:56:55;;;;;;;;;;;14.40;93.50;;;;;;4331853;33;31879;-77
2021/10/30 06:59:22;;;;;;;;;;;14.30;93.50;;;;;;4332658;33;19994;-77
2021/10/30 07:01:52;;;;;;;;;;;14.30;93.50;;;;;;4331280;33;38370;-77
2021/10/30 07:04:28;;;;;;;;;;;14.30;93.50;;;;;;4320223;33;20002;-77
2021/10/30 07:07:03;;;;;;;;;;;14.30;93.50;;;;;;4331255;33;36482;-77
2021/10/30 07:09:35;;;;;;;;;;;14.30;93.50;;;;;;4331566;33;26507;-77
2021/10/30 07:12:08;;;;;;;;;;;14.30;93.50;;;;;;4331153;33;37644;-77
2021/10/30 07:14:49;;;;;;;;;;;14.30;93.50;;;;;;4321007;33;19994;-77
2021/10/30 07:17:22;;;;;;;;;;;14.30;93.50;;;;;;4330950;33;42171;-77
2021/10/30 07:19:55;;;;;;;;;;;14.40;93.50;;;;;;4320061;33;19994;-77
2021/10/30 07:22:27;;;;;;;;;;;14.30;93.50;;;;;;4330760;33;45443;-77
2021/10/30 07:25:02;;;;;;;;;;;14.40;93.50;;;;;;4320158;33;20029;-77
2021/10/30 07:27:32;;;;;;;;;;;14.40;93.50;;;;;;4331687;33;25442;-78
2021/10/30 07:30:07;;;;;;;;;;;14.40;93.80;;;;;;4331856;33;20021;-78
2021/10/30 07:32:35;;;;;;;;;;;14.40;93.50;;;;;;4331125;33;39794;-77
2021/10/30 07:35:02;;;;;;;;;;;14.30;93.50;;;;;;4330773;33;41650;-77
2021/10/30 07:37:38;;;;;;;;;;;14.30;93.50;;;;;;4318610;33;45284;-78
2021/10/30 07:40:11;;;;;;;;;;;14.30;93.60;;;;;;4319099;33;26936;-77
2021/10/30 07:42:41;;;;;;;;;;;14.30;93.60;;;;;;4319953;33;20027;-77
2021/10/30 07:45:08;;;;;;;;;;;14.30;93.60;;;;;;4318472;33;37418;-78
2021/10/30 07:47:44;;;;;;;;;;;14.30;93.60;;;;;;4318498;33;35571;-77
2021/10/30 07:50:16;;;;;;;;;;;14.30;93.60;;;;;;4318426;33;38125;-77
2021/10/30 07:52:48;;;;;;;;;;;14.30;93.70;;;;;;4319346;33;19993;-77
2021/10/30 07:55:21;;;;;;;;;;;14.30;93.70;;;;;;4318586;33;38988;-77
2021/10/30 07:57:54;;;;;;;;;;;14.30;93.70;;;;;;4330644;33;24339;-77
2021/10/30 08:00:29;;;;;;;;;;;14.30;93.70;;;;;;4331601;33;20064;-77
2021/10/30 08:03:03;;;;;;;;;;;14.30;93.70;;;;;;4332370;33;20033;-78
2021/10/30 08:05:36;;;;;;;;;;;14.30;93.60;;;;;;4331580;33;20004;-78
2021/10/30 08:08:08;;;;;;;;;;;14.30;93.70;;;;;;4318797;33;26244;-77
2021/10/30 08:10:37;;;;;;;;;;;14.30;93.70;;;;;;4318410;33;34676;-78
2021/10/30 08:13:13;;;;;;;;;;;14.30;93.70;;;;;;4318651;33;36686;-77
2021/10/30 08:15:51;;;;;;;;;;;14.30;93.70;;;;;;4331920;33;32088;-77
2021/10/30 08:18:24;;;;;;;;;;;14.30;93.70;;;;;;4330453;33;40374;-77
2021/10/30 08:21:00;;;;;;;;;;;14.30;93.70;;;;;;4319461;33;20010;-78
2021/10/30 08:23:33;;;;;;;;;;;14.30;93.70;;;;;;4330555;33;32069;-77
2021/10/30 08:26:08;;;;;;;;;;;14.40;93.70;;;;;;4330275;33;37627;-77
2021/10/30 08:28:41;;;;;;;;;;;14.40;93.60;;;;;;4330245;33;38551;-77
2021/10/30 08:31:15;;;;;;;;;;;14.40;93.60;;;;;;4330933;33;20013;-77
2021/10/30 08:33:48;;;;;;;;;;;14.40;93.60;;;;;;4330613;33;30289;-77
2021/10/30 08:36:23;;;;;;;;;;;14.40;93.60;;;;;;4319156;33;20040;-77
2021/10/30 08:38:58;;;;;;;;;;;14.40;93.60;;;;;;4331414;33;20009;-77
2021/10/30 08:41:34;;;;;;;;;;;14.40;93.70;;;;;;4331260;33;20075;-77
2021/10/30 08:44:09;;;;;;;;;;;14.40;93.80;;;;;;4317831;33;40469;-77
2021/10/30 08:46:43;;;;;;;;;;;14.30;93.80;;;;;;4317744;33;40806;-77
2021/10/30 08:49:19;;;;;;;;;;;14.30;93.90;;;;;;4331862;33;20407;-77
2021/10/30 08:51:55;;;;;;;;;;;14.30;93.90;;;;;;4331036;33;20013;-77
2021/10/30 08:54:28;;;;;;;;;;;14.40;94.00;;;;;;4330751;33;20068;-77
2021/10/30 08:57:00;;;;;;;;;;;14.40;94.00;;;;;;4317762;33;39463;-76
2021/10/30 08:59:42;;;;;;;;;;;14.30;94.00;;;;;;4318974;33;20357;-77
2021/10/30 09:02:29;;;;;;;;;;;14.30;94.00;;;;;;4318100;33;20328;-77
2021/10/30 09:05:30;;;;;;;;;;;14.30;94.00;;;;;;4331869;33;20018;-77
2021/10/30 09:08:03;;;;;;;;;;;14.30;94.00;;;;;;4294955;33;20415;-76
2021/10/30 09:10:38;;;;;;;;;;;14.40;94.00;;;;;;4331017;33;37440;-77
2021/10/30 09:13:10;;;;;;;;;;;14.40;94.10;;;;;;4331046;33;20023;-78
2021/10/30 09:15:58;;;;;;;;;;;14.30;94.00;;;;;;4331847;33;20010;-77
2021/10/30 09:18:32;;;;;;;;;;;14.30;94.10;;;;;;4317690;33;36586;-78
2021/10/30 09:21:19;;;;;;;;;;;14.30;94.10;;;;;;4330734;33;20013;-77
2021/10/30 09:23:58;;;;;;;;;;;14.30;94.20;;;;;;4330767;33;20013;-77
2021/10/30 09:26:34;;;;;;;;;;;14.30;94.30;;;;;;4329643;33;44043;-77
2021/10/30 09:29:11;;;;;;;;;;;14.30;94.30;;;;;;4329456;33;44973;-76
2021/10/30 09:31:47;;;;;;;;;;;14.30;94.30;;;;;;4329968;33;29152;-77
2021/10/30 09:34:28;;;;;;;;;;;14.30;94.60;;;;;;4329827;33;39002;-77
2021/10/30 09:37:01;;;;;;;;;;;14.30;94.30;;;;;;4330651;33;19997;-77
2021/10/30 09:39:34;;;;;;;;;;;14.30;94.30;;;;;;4320183;33;34874;-76
2021/10/30 09:42:28;;;;;;;;;;;14.30;94.40;;;;;;4334429;33;20064;-77
2021/10/30 09:45:13;;;;;;;;;;;14.20;94.40;;;;;;4333391;33;20013;-75
2021/10/30 09:47:50;;;;;;;;;;;14.20;94.50;;;;;;4320367;33;39018;-76
2021/10/30 09:50:29;;;;;;;;;;;14.20;94.50;;;;;;4333693;33;20018;-76
2021/10/30 09:52:58;;;;;;;;;;;14.20;94.60;;;;;;4334718;33;20044;-77
2021/10/30 09:55:31;;;;;;;;;;;14.20;94.50;;;;;;4332019;33;44058;-76
2021/10/30 09:58:07;;;;;;;;;;;14.20;94.50;;;;;;4332868;33;25235;-77
2021/10/30 10:00:38;;;;;;;;;;;14.20;94.50;;;;;;4332265;33;28344;-75
2021/10/30 10:03:11;;;;;;;;;;;14.20;94.50;;;;;;4333186;33;20452;-77
2021/10/30 10:05:44;;;;;;;;;;;14.20;94.60;;;;;;4333443;33;40031;-77
2021/10/30 10:08:19;;;;;;;;;;;14.10;94.50;;;;;;4320405;33;24830;-77
2021/10/30 10:10:51;;;;;;;;;;;14.20;94.60;;;;;;4333696;33;29596;-77
2021/10/30 10:13:24;;;;;;;;;;;14.20;94.50;;;;;;4333117;33;20046;-77
2021/10/30 10:16:01;;;;;;;;;;;14.20;94.50;;;;;;4333407;33;20061;-77
2021/10/30 10:18:35;;;;;;;;;;;14.20;94.60;;;;;;4333265;33;20039;-77
2021/10/30 10:21:08;;;;;;;;;;;14.20;94.60;;;;;;4333244;33;20377;-77
2021/10/30 10:23:47;;;;;;;;;;;14.20;94.60;;;;;;4332804;33;20044;-78
2021/10/30 10:26:28;;;;;;;;;;;14.20;94.60;;;;;;4332819;33;20005;-77
2021/10/30 10:29:04;;;;;;;;;;;14.20;94.60;;;;;;4333212;33;20415;-77
2021/10/30 10:31:49;;;;;;;;;;;14.20;94.60;;;;;;4334248;33;20052;-76
2021/10/30 10:34:36;;;;;;;;;;;14.20;94.60;;;;;;4333106;33;20053;-76
2021/10/30 10:37:14;;;;;;;;;;;14.20;94.60;;;;;;4334186;33;20108;-76
2021/10/30 10:40:00;;;;;;;;;;;14.20;94.60;;;;;;4319151;33;43635;-76
2021/10/30 10:42:36;;;;;;;;;;;14.20;94.60;;;;;;4332423;33;20407;-77
2021/10/30 10:45:12;;;;;;;;;;;14.20;94.70;;;;;;4331280;33;40100;-76
2021/10/30 10:47:39;;;;;;;;;;;14.20;94.70;;;;;;4333149;33;32643;-76
2021/10/30 10:50:17;;;;;;;;;;;14.20;94.70;;;;;;4332272;33;20016;-77
2021/10/30 10:53:04;;;;;;;;;;;14.20;94.70;;;;;;4333342;33;20005;-77
2021/10/30 10:55:38;;;;;;;;;;;14.30;94.70;;;;;;4332983;33;32228;-77
2021/10/30 10:58:12;;;;;;;;;;;14.30;94.70;;;;;;4332619;33;20044;-77
2021/10/30 11:01:13;;;;;;;;;;;14.30;94.70;;;;;;4331782;33;35025;-77
2021/10/30 11:03:46;;;;;;;;;;;14.30;94.70;;;;;;4310618;33;27103;-77
2021/10/30 11:06:30;;;;;;;;;;;14.30;94.70;;;;;;4331193;33;39207;-77
2021/10/30 11:09:11;;;;;;;;;;;14.30;94.70;;;;;;4331793;33;28567;-77
2021/10/30 11:11:44;;;;;;;;;;;14.40;94.60;;;;;;4332202;33;19994;-77
2021/10/30 11:14:14;;;;;;;;;;;14.40;94.70;;;;;;4331471;33;30566;-77
2021/10/30 11:16:53;;;;;;;;;;;14.40;94.70;;;;;;4331700;33;20005;-76
2021/10/30 11:19:37;;;;;;;;;;;14.30;94.70;;;;;;4331560;33;35703;-77
2021/10/30 11:22:09;;;;;;;;;;;14.40;94.70;;;;;;4319678;33;20406;-77
2021/10/30 11:24:49;;;;;;;;;;;14.40;94.70;;;;;;4320108;33;20041;-76
2021/10/30 11:27:16;;;;;;;;;;;14.40;94.70;;;;;;4319913;33;20005;-76
2021/10/30 11:29:51;;;;;;;;;;;14.40;94.70;;;;;;4319810;33;20014;-77
2021/10/30 11:32:35;;;;;;;;;;;14.40;94.80;;;;;;4331939;33;20011;-77
2021/10/30 11:35:10;;;;;;;;;;;14.40;94.80;;;;;;4332813;33;22744;-77
2021/10/30 11:37:43;;;;;;;;;;;14.30;94.80;;;;;;4331236;33;27304;-77
2021/10/30 11:40:16;;;;;;;;;;;14.40;94.80;;;;;;4331900;33;19997;-77
2021/10/30 11:42:51;;;;;;;;;;;14.30;94.80;;;;;;4333216;33;20111;-77
2021/10/30 11:45:21;;;;;;;;;;;14.30;94.70;;;;;;4319945;33;20454;-77
2021/10/30 11:47:52;;;;;;;;;;;14.40;94.70;;;;;;4330794;33;36957;-77
2021/10/30 11:50:25;;;;;;;;;;;14.40;94.70;;;;;;4330653;33;38709;-77
2021/10/30 11:52:56;;;;;;;;;;;14.40;94.80;;;;;;4331904;33;42302;-77
2021/10/30 11:55:28;;;;;;;;;;;14.40;94.80;;;;;;4332296;33;20080;-77
2021/10/30 11:58:08;;;;;;;;;;;14.40;94.80;;;;;;4332983;33;20039;-77
2021/10/30 12:00:48;;;;;;;;;;;14.40;94.90;;;;;;4317750;33;30444;-77
2021/10/30 12:03:30;;;;;;;;;;;14.40;94.80;;;;;;4318345;33;42479;-77
2021/10/30 12:06:01;;;;;;;;;;;14.40;94.90;;;;;;4331856;33;35824;-77
2021/10/30 12:08:32;;;;;;;;;;;14.40;94.90;;;;;;4332605;33;20438;-77
2021/10/30 12:11:03;;;;;;;;;;;14.40;94.90;;;;;;4331176;33;20009;-77
2021/10/30 12:13:33;;;;;;;;;;;14.40;94.90;;;;;;4332388;33;20017;-77
2021/10/30 12:16:07;;;;;;;;;;;14.40;95.00;;;;;;4332197;33;20013;-77
2021/10/30 12:18:36;;;;;;;;;;;14.40;94.90;;;;;;4331085;33;21225;-76
2021/10/30 12:21:03;;;;;;;;;;;14.40;95.30;;;;;;4318118;33;29235;-76
2021/10/30 12:23:34;;;;;;;;;;;14.40;94.90;;;;;;4330734;33;20021;-76
2021/10/30 12:26:12;;;;;;;;;;;14.50;95.10;;;;;;4331496;33;20064;-77
2021/10/30 12:28:44;;;;;;;;;;;14.40;95.10;;;;;;4330461;33;32379;-77
2021/10/30 12:31:12;;;;;;;;;;;14.50;95.20;;;;;;4331440;33;20043;-77
2021/10/30 12:33:43;;;;;;;;;;;14.50;95.20;;;;;;4332671;33;20020;-76
2021/10/30 12:36:14;;;;;;;;;;;14.60;95.20;;;;;;4331107;33;20029;-77
2021/10/30 12:38:44;;;;;;;;;;;14.50;95.10;;;;;;4330907;33;20416;-76
2021/10/30 12:41:31;;;;;;;;;;;14.60;95.10;;;;;;4332373;33;20387;-78
2021/10/30 12:44:01;;;;;;;;;;;14.60;95.10;;;;;;4330909;33;43730;-77
2021/10/30 12:46:47;;;;;;;;;;;14.60;95.10;;;;;;4318342;33;27412;-76
2021/10/30 12:49:27;;;;;;;;;;;14.60;95.20;;;;;;4331194;33;20107;-77
2021/10/30 12:51:58;;;;;;;;;;;14.60;95.10;;;;;;4330952;33;20470;-77
2021/10/30 12:54:34;;;;;;;;;;;14.60;95.10;;;;;;4330451;33;20005;-76
2021/10/30 12:57:02;;;;;;;;;;;14.60;95.10;;;;;;4331188;33;39402;-77
2021/10/30 12:59:41;;;;;;;;;;;14.60;95.10;;;;;;4318425;33;20076;-77
2021/10/30 13:02:09;;;;;;;;;;;14.60;95.20;;;;;;4329767;33;41277;-77
2021/10/30 13:04:40;;;;;;;;;;;14.70;95.20;;;;;;4331038;33;20010;-76
2021/10/30 13:07:10;;;;;;;;;;;14.70;95.20;;;;;;4331627;33;20465;-77
2021/10/30 13:09:44;;;;;;;;;;;14.70;95.10;;;;;;4330707;33;20013;-77
2021/10/30 13:12:11;;;;;;;;;;;14.70;95.00;;;;;;4332103;33;20439;-77
2021/10/30 13:14:39;;;;;;;;;;;14.80;95.00;;;;;;4331008;33;20041;-75
2021/10/30 13:17:09;;;;;;;;;;;14.80;94.90;;;;;;4318715;33;20069;-77
2021/10/30 13:19:42;;;;;;;;;;;14.80;94.90;;;;;;4332207;33;20044;-77
2021/10/30 13:22:12;;;;;;;;;;;14.80;94.80;;;;;;4330779;33;20430;-77
2021/10/30 13:24:40;;;;;;;;;;;14.80;94.90;;;;;;4330470;33;20017;-77
2021/10/30 13:27:15;;;;;;;;;;;14.80;94.80;;;;;;4329563;33;39701;-78
2021/10/30 13:29:44;;;;;;;;;;;14.70;94.90;;;;;;4329886;33;32590;-76
2021/10/30 13:32:17;;;;;;;;;;;14.70;94.90;;;;;;4318560;33;20064;-77
2021/10/30 13:34:47;;;;;;;;;;;14.70;94.80;;;;;;4330426;33;20048;-77
2021/10/30 13:37:20;;;;;;;;;;;14.70;95.20;;;;;;4330352;33;20056;-77
2021/10/30 13:39:50;;;;;;;;;;;14.80;94.90;;;;;;4330774;33;40818;-77
2021/10/30 13:42:23;;;;;;;;;;;14.80;94.80;;;;;;4329212;33;43321;-77
2021/10/30 13:44:53;;;;;;;;;;;14.80;94.80;;;;;;4329633;33;38195;-77
2021/10/30 13:47:28;;;;;;;;;;;14.80;94.80;;;;;;4331883;33;20005;-77
2021/10/30 13:49:57;;;;;;;;;;;14.80;94.70;;;;;;4330087;33;24076;-77
2021/10/30 13:52:30;;;;;;;;;;;14.80;94.80;;;;;;4330638;33;20072;-77
2021/10/30 13:55:04;;;;;;;;;;;14.80;94.80;;;;;;4330710;33;20005;-77
2021/10/30 13:57:33;;;;;;;;;;;14.80;94.80;;;;;;4330737;33;38898;-77
2021/10/30 14:00:03;;;;;;;;;;;14.80;94.80;;;;;;4329411;33;43642;-76
2021/10/30 14:02:32;;;;;;;;;;;14.80;94.80;;;;;;4317732;33;20362;-76
2021/10/30 14:05:00;;;;;;;;;;;14.80;94.80;;;;;;4330114;33;20012;-76
2021/10/30 14:07:32;;;;;;;;;;;14.70;94.80;;;;;;4331179;33;20049;-77
2021/10/30 14:09:59;;;;;;;;;;;14.70;94.80;;;;;;4318042;33;20016;-76
2021/10/30 14:12:30;;;;;;;;;;;14.70;94.80;;;;;;4329711;33;20021;-77
2021/10/30 14:15:02;;;;;;;;;;;14.70;94.90;;;;;;4330132;33;20005;-76
2021/10/30 14:17:32;;;;;;;;;;;14.70;94.90;;;;;;4331736;33;20016;-77
2021/10/30 14:20:01;;;;;;;;;;;14.70;94.90;;;;;;4331198;33;20006;-77
2021/10/30 14:22:33;;;;;;;;;;;14.70;94.90;;;;;;4332067;33;20075;-77
2021/10/30 14:25:06;;;;;;;;;;;14.70;94.90;;;;;;4320216;33;20024;-76
2021/10/30 14:27:34;;;;;;;;;;;14.70;94.90;;;;;;4332172;33;38911;-77
2021/10/30 14:30:02;;;;;;;;;;;14.70;94.90;;;;;;4319300;33;41923;-77
2021/10/30 14:32:32;;;;;;;;;;;14.70;94.90;;;;;;4332018;33;36505;-77
2021/10/30 14:35:08;;;;;;;;;;;14.70;94.90;;;;;;4332710;33;20009;-77
2021/10/30 14:37:36;;;;;;;;;;;14.70;94.90;;;;;;4332832;33;20061;-77
2021/10/30 14:40:05;;;;;;;;;;;14.70;94.90;;;;;;4332895;33;36279;-78
2021/10/30 14:42:32;;;;;;;;;;;14.70;94.90;;;;;;4334097;33;20006;-77